METAR UND TAF INFORMATION
EDHL 161850Z VRB02KT CAVOK 23/14 Q1013

 FLUGHAFENKARTE

 RUNWAY INFORMATION
Runway 07 Runway length 6896 ft Runway width 197 ft
Runway elevation 53 ft Runway displaced threshold 984 ft Runway heading 72
Runway 25 Runway length 6896 ft Runway width 197 ft
Runway elevation 47 ft Runway displaced threshold 0 ft Runway heading 252

 AIRPORT FREQUENCIES
Type AFIS Name BREMEN INF Frequency 125.1 MHZ
Type ATIS Name ATIS Frequency 119.925 MHZ
Type GND Name GND Frequency 121.775 MHZ
Type INFO Name INFO Frequency 128.7 MHZ
Type RDR Name BREMEN RAD Frequency 124.225 MHZ
Type TWR Name TWR Frequency 128.7 MHZ

 AIRPORT NEAR NAVIGATION AIDS
Type VOR Name Lubeck Frequency 110600 KHZ
Type DME Name Lubeck Blankensee Frequency 115650 KHZ
Type NDB Name Lubeck Blankensee Frequency 394 KHZ



Aktuelle Version 4.2.2: Changelog

Impressum | Datenschutzerklärung

Powered by Cedric Balogh | Virtual Airlines Manager